Time;durP1;ratioP1;P1;durP2;ratioP2;P2;SDS_P1;SDS_P2;PMS_P1;PMS_P2;Temp;Humidity;BMP_temperature;BMP_pressure;BME280_temperature;BME280_humidity;BME280_pressure;Samples;Min_cycle;Max_cycle;Signal;HPM_P1;HPM_P2
2023/10/21 00:00:29;;;;;;;61.78;23.80;;;9.80;99.90;;;;;;5076060;28;20059;-84
2023/10/21 00:02:55;;;;;;;58.05;24.35;;;9.70;99.90;;;;;;5075677;28;20395;-83
2023/10/21 00:05:20;;;;;;;53.53;22.42;;;9.80;99.90;;;;;;5075721;28;20044;-84
2023/10/21 00:07:46;;;;;;;67.28;23.15;;;9.80;99.90;;;;;;5075876;28;20048;-83
2023/10/21 00:10:12;;;;;;;69.70;25.40;;;10.00;99.90;;;;;;5075891;28;20386;-84
2023/10/21 00:12:37;;;;;;;68.28;24.77;;;9.90;99.90;;;;;;5075605;28;20048;-84
2023/10/21 00:15:05;;;;;;;74.90;24.23;;;10.00;99.90;;;;;;5075589;28;20390;-84
2023/10/21 00:17:31;;;;;;;67.68;24.75;;;10.00;99.90;;;;;;5075823;28;20101;-84
2023/10/21 00:19:56;;;;;;;64.32;24.60;;;10.00;99.90;;;;;;5075926;28;20127;-84
2023/10/21 00:22:22;;;;;;;65.35;23.48;;;10.00;99.90;;;;;;5093603;28;20040;-84
2023/10/21 00:24:47;;;;;;;62.03;23.17;;;10.00;99.90;;;;;;5075506;28;20044;-84
2023/10/21 00:27:13;;;;;;;63.28;22.75;;;10.00;99.90;;;;;;5075689;28;20153;-85
2023/10/21 00:29:39;;;;;;;62.63;23.08;;;10.00;99.90;;;;;;5093501;28;20050;-85
2023/10/21 00:32:05;;;;;;;61.78;22.02;;;10.00;99.90;;;;;;5075581;28;20387;-84
2023/10/21 00:34:31;;;;;;;60.33;22.00;;;9.90;99.90;;;;;;5075712;28;20044;-84
2023/10/21 00:36:57;;;;;;;60.60;24.05;;;9.90;99.90;;;;;;5091806;28;20505;-85
2023/10/21 00:39:24;;;;;;;69.03;24.83;;;10.00;99.90;;;;;;5055268;28;20056;-83
2023/10/21 00:41:49;;;;;;;66.05;24.23;;;10.10;99.90;;;;;;5055433;28;20055;-84
2023/10/21 00:44:15;;;;;;;63.97;24.20;;;10.00;99.90;;;;;;5073334;28;20111;-83
2023/10/21 00:46:41;;;;;;;70.25;24.17;;;10.00;99.90;;;;;;5055542;28;20085;-83
2023/10/21 00:49:07;;;;;;;68.28;24.85;;;10.00;99.90;;;;;;5073222;28;20048;-83
2023/10/21 00:51:33;;;;;;;59.63;23.85;;;10.10;99.90;;;;;;5055431;28;20056;-83
2023/10/21 00:54:01;;;;;;;62.10;22.80;;;10.10;99.90;;;;;;5073150;28;20097;-83
2023/10/21 00:56:27;;;;;;;60.95;22.15;;;10.10;99.90;;;;;;5073236;28;20041;-84
2023/10/21 00:58:53;;;;;;;54.53;24.20;;;10.10;99.90;;;;;;5055094;28;20548;-84
2023/10/21 01:01:19;;;;;;;61.72;23.20;;;10.10;99.90;;;;;;5072959;28;20483;-83
2023/10/21 01:03:45;;;;;;;64.22;24.27;;;10.10;99.90;;;;;;5055058;28;20080;-84
2023/10/21 01:06:11;;;;;;;63.40;22.45;;;10.20;99.90;;;;;;5054963;28;20133;-84
2023/10/21 01:08:43;;;;;;;60.67;22.08;;;10.10;99.90;;;;;;5055036;28;20090;-84
2023/10/21 01:11:12;;;;;;;59.22;21.75;;;10.10;99.90;;;;;;5072995;28;20036;-84
2023/10/21 01:13:39;;;;;;;65.05;25.35;;;10.10;99.90;;;;;;5055011;28;20051;-84
2023/10/21 01:16:04;;;;;;;57.90;22.13;;;10.30;99.90;;;;;;5073068;28;20041;-83
2023/10/21 01:18:33;;;;;;;61.58;21.05;;;10.10;99.90;;;;;;5072875;28;20502;-83
2023/10/21 01:21:01;;;;;;;56.72;22.00;;;10.00;99.90;;;;;;5072997;28;20055;-84
2023/10/21 01:23:30;;;;;;;53.38;20.98;;;10.10;99.90;;;;;;5054671;28;20098;-83
2023/10/21 01:25:56;;;;;;;56.15;20.95;;;10.10;99.90;;;;;;5056524;28;20131;-84
2023/10/21 01:28:22;;;;;;;61.53;21.27;;;10.10;99.90;;;;;;5058513;28;20127;-84
2023/10/21 01:30:47;;;;;;;53.15;20.90;;;10.10;99.90;;;;;;5058720;28;20036;-83
2023/10/21 01:33:14;;;;;;;53.67;21.45;;;10.10;99.90;;;;;;5058222;28;20105;-83
2023/10/21 01:35:39;;;;;;;50.63;21.52;;;10.20;99.90;;;;;;5076302;28;20036;-83
2023/10/21 01:38:06;;;;;;;55.63;19.65;;;10.10;99.90;;;;;;5076065;28;20368;-83
2023/10/21 01:40:31;;;;;;;56.13;20.25;;;10.10;99.90;;;;;;5058234;28;20088;-83
2023/10/21 01:42:57;;;;;;;51.08;20.88;;;10.10;99.90;;;;;;5076109;28;20072;-83
2023/10/21 01:45:23;;;;;;;51.50;21.02;;;10.10;99.90;;;;;;5075884;28;20045;-83
2023/10/21 01:47:49;;;;;;;62.30;21.55;;;10.20;99.90;;;;;;5057811;28;20045;-83
2023/10/21 01:50:14;;;;;;;55.63;21.38;;;10.20;99.90;;;;;;5076144;28;20090;-84
2023/10/21 01:52:40;;;;;;;52.33;21.48;;;10.30;99.90;;;;;;5058163;28;20043;-85
2023/10/21 01:55:08;;;;;;;49.60;19.70;;;10.20;99.90;;;;;;5057965;28;20050;-84
2023/10/21 01:57:34;;;;;;;59.25;20.67;;;10.30;99.90;;;;;;5057841;28;20048;-84
2023/10/21 02:00:01;;;;;;;50.53;19.90;;;10.30;99.90;;;;;;5057940;28;20044;-84
2023/10/21 02:02:28;;;;;;;51.97;19.50;;;10.30;99.90;;;;;;5075727;28;20051;-84
2023/10/21 02:04:53;;;;;;;60.03;20.13;;;10.30;99.90;;;;;;5075763;28;20044;-84
2023/10/21 02:07:19;;;;;;;49.60;19.83;;;10.40;99.90;;;;;;5057838;28;20044;-83
2023/10/21 02:09:45;;;;;;;53.47;19.05;;;10.50;99.90;;;;;;5058017;28;20084;-83
2023/10/21 02:12:11;;;;;;;46.08;18.45;;;10.50;99.90;;;;;;5057708;28;20157;-84
2023/10/21 02:14:36;;;;;;;48.03;18.65;;;10.50;99.90;;;;;;5057549;28;20053;-83
2023/10/21 02:17:02;;;;;;;53.70;19.95;;;10.60;99.90;;;;;;5075312;28;20061;-83
2023/10/21 02:19:28;;;;;;;48.90;18.67;;;10.50;99.90;;;;;;5075431;28;20044;-84
2023/10/21 02:21:53;;;;;;;52.80;18.27;;;10.60;99.90;;;;;;5057582;28;20044;-83
2023/10/21 02:24:19;;;;;;;47.20;18.90;;;10.50;99.90;;;;;;5057595;28;20548;-83
2023/10/21 02:26:45;;;;;;;51.38;18.38;;;10.50;99.90;;;;;;5057352;28;20036;-83
2023/10/21 02:29:11;;;;;;;56.28;20.27;;;10.60;99.90;;;;;;5057312;28;20048;-82
2023/10/21 02:31:37;;;;;;;57.00;18.98;;;10.70;99.90;;;;;;5057179;28;20076;-84
2023/10/21 02:34:03;;;;;;;48.67;18.80;;;10.60;99.90;;;;;;5075615;28;20044;-83
2023/10/21 02:36:28;;;;;;;51.65;18.60;;;10.70;99.90;;;;;;5075093;28;20044;-83
2023/10/21 02:38:55;;;;;;;50.05;18.80;;;10.80;99.90;;;;;;5074988;28;20056;-83
2023/10/21 02:41:20;;;;;;;54.60;21.45;;;10.80;99.90;;;;;;5075094;28;20082;-84
2023/10/21 02:43:47;;;;;;;54.47;18.80;;;10.80;99.90;;;;;;5074818;28;20433;-83
2023/10/21 02:46:13;;;;;;;54.10;20.73;;;10.80;99.90;;;;;;5056846;28;20098;-83
2023/10/21 02:48:40;;;;;;;50.05;19.75;;;10.80;99.90;;;;;;5057161;28;20071;-83
2023/10/21 02:51:10;;;;;;;55.25;20.80;;;10.80;99.90;;;;;;5056947;28;20048;-82
2023/10/21 02:53:37;;;;;;;62.05;22.00;;;10.90;99.90;;;;;;5074738;28;20051;-82
2023/10/21 02:56:05;;;;;;;58.95;21.90;;;10.80;99.90;;;;;;5074763;28;20045;-83
2023/10/21 02:58:31;;;;;;;59.33;21.00;;;10.90;99.90;;;;;;5057226;28;20433;-83
2023/10/21 03:00:57;;;;;;;64.40;22.02;;;10.90;99.90;;;;;;5056617;28;20059;-83
2023/10/21 03:03:22;;;;;;;53.95;21.58;;;10.90;99.90;;;;;;5074586;28;20040;-84
2023/10/21 03:05:48;;;;;;;62.20;22.77;;;10.70;99.90;;;;;;5056856;28;20076;-83
2023/10/21 03:08:14;;;;;;;69.28;25.40;;;10.70;99.90;;;;;;5056614;28;20098;-84
2023/10/21 03:10:40;;;;;;;68.93;24.10;;;10.70;99.90;;;;;;5056823;28;20052;-83
2023/10/21 03:13:06;;;;;;;63.50;24.50;;;10.70;99.90;;;;;;5074463;28;20483;-84
2023/10/21 03:15:36;;;;;;;61.22;25.15;;;10.60;99.90;;;;;;5056361;28;20056;-83
2023/10/21 03:18:02;;;;;;;61.67;24.58;;;10.60;99.90;;;;;;5056648;28;20051;-83
2023/10/21 03:20:32;;;;;;;61.17;25.60;;;10.50;99.90;;;;;;5074359;28;20040;-83
2023/10/21 03:22:57;;;;;;;69.20;25.42;;;10.50;99.90;;;;;;5073976;28;20368;-83
2023/10/21 03:25:23;;;;;;;66.10;24.65;;;10.50;99.90;;;;;;5056291;28;20048;-83
2023/10/21 03:27:48;;;;;;;65.85;24.88;;;10.50;99.90;;;;;;5056129;28;20076;-83
2023/10/21 03:30:14;;;;;;;65.25;24.17;;;10.40;99.90;;;;;;5074097;28;20079;-83
2023/10/21 03:32:40;;;;;;;68.65;26.45;;;10.40;99.90;;;;;;5056402;28;20451;-83
2023/10/21 03:35:06;;;;;;;68.70;26.42;;;10.40;99.90;;;;;;5074064;28;20040;-84
2023/10/21 03:37:34;;;;;;;65.03;24.17;;;10.30;99.90;;;;;;5055814;28;20057;-83
2023/10/21 03:40:00;;;;;;;61.50;23.52;;;10.30;99.90;;;;;;5056041;28;20052;-83
2023/10/21 03:42:26;;;;;;;62.70;24.80;;;10.30;99.90;;;;;;5073598;28;20052;-83
2023/10/21 03:44:51;;;;;;;59.08;23.40;;;10.20;99.90;;;;;;5055779;28;20101;-84
2023/10/21 03:47:17;;;;;;;60.60;23.48;;;10.30;99.90;;;;;;5056150;28;20040;-84
2023/10/21 03:49:43;;;;;;;71.50;24.73;;;10.20;99.90;;;;;;5073181;28;20453;-84
2023/10/21 03:52:08;;;;;;;58.03;23.58;;;10.20;99.90;;;;;;5073836;28;20079;-84
2023/10/21 03:54:34;;;;;;;68.50;24.15;;;10.20;99.90;;;;;;5056153;28;20399;-83
2023/10/21 03:56:59;;;;;;;60.83;23.17;;;10.20;99.90;;;;;;5073805;28;20486;-83
2023/10/21 03:59:25;;;;;;;53.53;21.77;;;10.20;99.90;;;;;;5055741;28;20041;-85
2023/10/21 04:01:51;;;;;;;61.58;24.90;;;10.20;99.90;;;;;;5055865;28;20040;-83
2023/10/21 04:04:16;;;;;;;61.83;23.55;;;10.20;99.90;;;;;;5073748;28;20059;-83
2023/10/21 04:06:42;;;;;;;57.63;24.98;;;10.20;99.90;;;;;;5073710;28;20040;-83
2023/10/21 04:09:09;;;;;;;56.85;23.65;;;10.20;99.90;;;;;;5055548;28;20052;-83
2023/10/21 04:11:35;;;;;;;62.60;24.48;;;10.20;99.90;;;;;;5055549;28;20044;-83
2023/10/21 04:14:01;;;;;;;67.07;24.30;;;10.10;99.90;;;;;;5079034;28;20043;-83
2023/10/21 04:16:26;;;;;;;64.03;24.65;;;10.10;99.90;;;;;;5075655;28;20051;-83
2023/10/21 04:18:52;;;;;;;58.70;24.05;;;10.20;99.90;;;;;;5076104;28;20075;-83
2023/10/21 04:21:19;;;;;;;60.17;25.13;;;10.10;99.90;;;;;;5093529;28;20112;-84
2023/10/21 04:23:44;;;;;;;56.42;22.50;;;10.10;99.90;;;;;;5075552;28;20048;-84
2023/10/21 04:26:10;;;;;;;51.70;21.92;;;10.10;99.90;;;;;;5075460;28;20051;-84
2023/10/21 04:28:35;;;;;;;55.50;23.40;;;10.00;99.90;;;;;;5093573;28;20043;-83
2023/10/21 04:31:01;;;;;;;54.90;22.98;;;10.10;99.90;;;;;;5093587;28;20372;-83
2023/10/21 04:33:26;;;;;;;55.95;23.05;;;10.00;99.90;;;;;;5093681;28;20121;-83
2023/10/21 04:35:52;;;;;;;55.50;24.20;;;10.00;99.90;;;;;;5093625;28;20046;-83
2023/10/21 04:38:18;;;;;;;52.40;22.40;;;10.00;99.90;;;;;;5105918;28;20506;-84
2023/10/21 04:40:44;;;;;;;55.72;23.65;;;9.90;99.90;;;;;;5113971;28;20040;-83
2023/10/21 04:43:09;;;;;;;50.10;23.25;;;9.80;99.90;;;;;;5113706;28;20075;-83
2023/10/21 04:45:35;;;;;;;60.60;22.88;;;9.80;99.90;;;;;;5095524;28;20043;-83
2023/10/21 04:48:01;;;;;;;49.42;22.20;;;9.80;99.90;;;;;;5095607;28;20054;-83
2023/10/21 04:50:27;;;;;;;57.15;22.73;;;9.90;99.90;;;;;;5095581;28;20134;-83
2023/10/21 04:52:52;;;;;;;46.25;20.63;;;9.80;99.90;;;;;;5095864;28;20056;-83
2023/10/21 04:55:18;;;;;;;52.85;23.30;;;9.80;99.90;;;;;;5095599;28;20072;-83
2023/10/21 04:57:43;;;;;;;56.72;22.63;;;9.70;99.90;;;;;;5095697;28;20428;-83
2023/10/21 05:00:10;;;;;;;60.38;23.73;;;9.80;99.90;;;;;;5095917;28;20038;-83
2023/10/21 05:02:35;;;;;;;57.35;23.92;;;9.80;99.90;;;;;;5099396;28;20039;-84
2023/10/21 05:05:01;;;;;;;51.30;23.80;;;9.70;99.90;;;;;;5117364;28;20414;-83
2023/10/21 05:07:26;;;;;;;52.72;21.48;;;9.70;99.90;;;;;;5099215;28;20055;-83
2023/10/21 05:09:52;;;;;;;50.33;22.50;;;9.80;99.90;;;;;;5099046;28;20039;-83
2023/10/21 05:12:19;;;;;;;55.88;23.75;;;9.70;99.90;;;;;;5099311;28;20047;-83
2023/10/21 05:14:45;;;;;;;62.35;24.67;;;9.70;99.90;;;;;;5099038;28;20047;-83
2023/10/21 05:17:11;;;;;;;63.35;26.67;;;9.80;99.90;;;;;;5117241;28;20493;-83
2023/10/21 05:19:37;;;;;;;67.32;25.65;;;9.80;99.90;;;;;;5117297;28;20051;-84
2023/10/21 05:22:03;;;;;;;61.10;25.42;;;9.80;99.90;;;;;;5117178;28;20050;-83
2023/10/21 05:24:28;;;;;;;55.05;24.92;;;9.80;99.90;;;;;;5099216;28;20109;-83
2023/10/21 05:26:54;;;;;;;61.67;25.75;;;9.80;99.90;;;;;;5099302;28;20040;-83
2023/10/21 05:29:20;;;;;;;61.17;25.00;;;9.70;99.90;;;;;;5098746;28;20047;-83
2023/10/21 05:31:45;;;;;;;56.30;23.88;;;9.70;99.90;;;;;;5116915;28;20101;-84
2023/10/21 05:34:17;;;;;;;57.88;25.33;;;9.70;99.90;;;;;;5098702;28;20050;-83
2023/10/21 05:36:44;;;;;;;64.00;25.00;;;9.70;99.90;;;;;;5098651;28;20048;-83
2023/10/21 05:39:11;;;;;;;56.17;23.58;;;9.70;99.90;;;;;;5098257;28;20383;-84
2023/10/21 05:41:38;;;;;;;57.72;23.77;;;9.70;99.90;;;;;;5098408;28;20113;-84
2023/10/21 05:44:05;;;;;;;59.63;23.52;;;9.70;99.90;;;;;;5116840;28;20046;-83
2023/10/21 05:46:30;;;;;;;52.83;24.10;;;9.70;99.90;;;;;;5098460;28;20053;-82
2023/10/21 05:48:56;;;;;;;57.15;25.33;;;9.70;99.90;;;;;;5098705;28;20052;-84
2023/10/21 05:51:21;;;;;;;48.67;23.17;;;9.70;99.90;;;;;;5098695;28;20047;-83
2023/10/21 05:53:47;;;;;;;54.85;22.50;;;9.70;99.90;;;;;;5098511;28;20044;-84
2023/10/21 05:56:13;;;;;;;53.22;21.33;;;9.70;99.90;;;;;;5098307;28;20058;-83
2023/10/21 05:58:40;;;;;;;53.13;22.08;;;9.80;99.90;;;;;;5098426;28;20046;-84
2023/10/21 06:01:10;;;;;;;52.60;20.95;;;9.80;99.90;;;;;;5116539;28;20040;-84
2023/10/21 06:03:36;;;;;;;49.90;20.80;;;9.70;99.90;;;;;;5116246;28;20092;-83
2023/10/21 06:06:02;;;;;;;59.28;22.02;;;9.80;99.90;;;;;;5116409;28;20032;-83
2023/10/21 06:08:29;;;;;;;53.40;22.90;;;9.70;99.90;;;;;;5098213;28;20059;-83
2023/10/21 06:10:55;;;;;;;54.25;22.20;;;9.70;99.90;;;;;;5097696;28;20040;-83
2023/10/21 06:13:20;;;;;;;48.45;21.27;;;9.80;99.90;;;;;;5097825;28;20100;-83
2023/10/21 06:15:49;;;;;;;52.55;22.98;;;9.70;99.90;;;;;;5098032;28;20039;-82
2023/10/21 06:18:15;;;;;;;52.40;22.38;;;9.70;99.90;;;;;;5115672;28;20052;-83
2023/10/21 06:20:40;;;;;;;47.13;21.77;;;9.70;99.90;;;;;;5096994;28;20106;-82
2023/10/21 06:23:06;;;;;;;55.05;22.40;;;9.80;99.90;;;;;;5115835;28;20104;-83
2023/10/21 06:25:32;;;;;;;47.55;22.98;;;9.70;99.90;;;;;;5097483;28;20048;-83
2023/10/21 06:27:58;;;;;;;43.17;20.75;;;9.70;99.90;;;;;;5097761;28;20509;-82
2023/10/21 06:30:24;;;;;;;49.97;22.17;;;9.70;99.90;;;;;;5097693;28;20062;-82
2023/10/21 06:32:49;;;;;;;52.53;21.90;;;9.80;99.90;;;;;;5115830;28;20385;-83
2023/10/21 06:35:15;;;;;;;49.10;20.73;;;9.80;99.90;;;;;;5115509;28;20075;-83
2023/10/21 06:37:40;;;;;;;48.00;20.40;;;9.80;99.90;;;;;;5115538;28;20062;-84
2023/10/21 06:40:07;;;;;;;44.78;21.52;;;9.80;99.90;;;;;;5115788;28;20040;-83
2023/10/21 06:42:33;;;;;;;48.63;21.58;;;9.80;99.90;;;;;;5115700;28;20040;-83
2023/10/21 06:44:59;;;;;;;48.45;20.73;;;9.80;99.90;;;;;;5097111;28;20050;-82
2023/10/21 06:47:25;;;;;;;43.05;18.92;;;9.80;99.90;;;;;;5114330;28;20036;-83
2023/10/21 06:49:50;;;;;;;40.58;18.90;;;9.80;99.90;;;;;;5080579;28;20045;-82
2023/10/21 06:52:20;;;;;;;52.03;21.55;;;9.90;99.90;;;;;;5074383;28;20036;-82
2023/10/21 06:54:45;;;;;;;43.55;19.65;;;9.90;99.90;;;;;;5056461;28;20056;-81
2023/10/21 06:57:19;;;;;;;47.00;20.92;;;9.90;99.90;;;;;;5056163;28;20048;-81
2023/10/21 06:59:46;;;;;;;40.60;18.75;;;9.90;99.90;;;;;;5074464;28;20040;-82
2023/10/21 07:02:11;;;;;;;49.15;20.10;;;9.90;99.90;;;;;;5056219;28;20053;-82
2023/10/21 07:04:37;;;;;;;43.63;19.02;;;10.00;99.90;;;;;;5074224;28;20067;-82
2023/10/21 07:07:03;;;;;;;45.00;18.15;;;10.00;99.90;;;;;;5074345;28;20055;-82
2023/10/21 07:09:30;;;;;;;44.05;18.20;;;10.00;99.90;;;;;;5056251;28;20080;-82
2023/10/21 07:11:56;;;;;;;41.03;18.05;;;10.00;99.90;;;;;;5074057;28;20097;-82
2023/10/21 07:14:22;;;;;;;40.00;17.45;;;10.10;99.90;;;;;;5074335;28;20044;-82
2023/10/21 07:16:47;;;;;;;40.90;16.70;;;10.10;99.90;;;;;;5074181;28;20044;-82
2023/10/21 07:19:13;;;;;;;40.20;18.00;;;10.10;99.90;;;;;;5073784;28;20079;-82
2023/10/21 07:21:39;;;;;;;41.40;17.73;;;10.20;99.90;;;;;;5055970;28;20052;-82
2023/10/21 07:24:06;;;;;;;47.72;18.33;;;10.20;99.90;;;;;;5055233;28;20052;-82
2023/10/21 07:26:32;;;;;;;38.67;17.58;;;10.20;99.90;;;;;;5056155;28;20048;-83
2023/10/21 07:28:58;;;;;;;40.97;16.60;;;10.30;99.90;;;;;;5073971;28;20094;-82
2023/10/21 07:31:24;;;;;;;37.38;16.92;;;10.30;99.90;;;;;;5073936;28;20041;-82
2023/10/21 07:33:52;;;;;;;40.00;15.70;;;10.40;99.90;;;;;;5073906;28;20035;-82
2023/10/21 07:36:18;;;;;;;43.20;17.00;;;10.40;99.90;;;;;;5073663;28;20518;-82
2023/10/21 07:38:43;;;;;;;35.35;15.68;;;10.40;99.90;;;;;;5055563;28;20053;-83
2023/10/21 07:41:13;;;;;;;39.80;16.50;;;10.50;99.90;;;;;;5073657;28;20055;-81
2023/10/21 07:43:39;;;;;;;37.95;16.23;;;10.40;99.90;;;;;;5073539;28;20075;-82
2023/10/21 07:46:05;;;;;;;44.97;17.42;;;10.50;99.90;;;;;;5055475;28;20496;-84
2023/10/21 07:48:31;;;;;;;38.78;16.17;;;10.50;99.90;;;;;;5073641;28;20040;-80
2023/10/21 07:50:58;;;;;;;41.95;16.10;;;10.50;99.90;;;;;;5073333;28;20396;-81
2023/10/21 07:53:23;;;;;;;38.22;17.33;;;10.60;99.90;;;;;;5055393;28;20055;-82
2023/10/21 07:55:53;;;;;;;38.47;18.42;;;10.60;99.90;;;;;;5055433;28;20052;-81
2023/10/21 07:58:18;;;;;;;42.58;20.63;;;10.60;99.90;;;;;;5055340;28;20060;-82
2023/10/21 08:00:44;;;;;;;43.22;18.38;;;10.60;99.90;;;;;;5055023;28;20041;-82
2023/10/21 08:03:10;;;;;;;54.17;22.55;;;10.70;99.90;;;;;;5073370;28;20043;-83
2023/10/21 08:05:35;;;;;;;42.10;19.25;;;10.70;99.90;;;;;;5073626;28;20051;-84
2023/10/21 08:08:03;;;;;;;46.60;20.17;;;10.80;99.90;;;;;;5055383;28;20125;-82
2023/10/21 08:10:29;;;;;;;56.50;22.95;;;10.90;99.90;;;;;;5055505;28;20143;-83
2023/10/21 08:12:55;;;;;;;47.17;19.00;;;10.80;99.90;;;;;;5055191;28;20048;-83
2023/10/21 08:15:20;;;;;;;48.90;20.13;;;10.90;99.90;;;;;;5055626;28;20053;-82
2023/10/21 08:17:46;;;;;;;43.60;19.05;;;11.00;99.90;;;;;;5073238;28;20118;-83
2023/10/21 08:20:12;;;;;;;44.85;20.75;;;11.00;99.90;;;;;;5055251;28;20545;-83
2023/10/21 08:22:37;;;;;;;49.65;20.98;;;11.10;99.90;;;;;;5055156;28;20064;-84
2023/10/21 08:25:03;;;;;;;45.80;19.27;;;11.20;99.90;;;;;;5055121;28;20037;-84
2023/10/21 08:27:29;;;;;;;45.78;19.60;;;11.20;99.90;;;;;;5073324;28;20045;-82
2023/10/21 08:29:54;;;;;;;44.35;20.27;;;11.30;99.90;;;;;;5073339;28;20051;-84
2023/10/21 08:32:20;;;;;;;45.08;19.00;;;11.30;99.90;;;;;;5055067;28;20056;-84
2023/10/21 08:34:46;;;;;;;49.08;19.05;;;11.50;99.90;;;;;;5074345;28;20047;-83
2023/10/21 08:37:15;;;;;;;47.28;18.88;;;11.40;99.90;;;;;;5076994;28;20246;-84
2023/10/21 08:39:43;;;;;;;51.72;19.85;;;11.60;99.90;;;;;;5058916;28;20555;-84
2023/10/21 08:42:09;;;;;;;51.30;21.48;;;11.60;99.90;;;;;;5059097;28;20041;-85
2023/10/21 08:44:37;;;;;;;52.88;22.23;;;11.60;99.90;;;;;;5077027;28;20055;-84
2023/10/21 08:47:06;;;;;;;44.92;21.63;;;11.80;99.90;;;;;;5058914;28;20064;-84
2023/10/21 08:49:33;;;;;;;44.55;19.50;;;11.80;99.90;;;;;;5076799;28;20238;-84
2023/10/21 08:52:01;;;;;;;51.25;20.77;;;11.90;99.90;;;;;;5076789;28;20616;-83
2023/10/21 08:54:30;;;;;;;49.28;20.15;;;11.80;99.90;;;;;;5058546;28;20086;-83
2023/10/21 08:56:56;;;;;;;45.17;19.88;;;11.90;99.90;;;;;;5076829;28;20076;-83
2023/10/21 08:59:22;;;;;;;55.70;19.85;;;12.00;99.90;;;;;;5059201;28;20076;-84
2023/10/21 09:01:47;;;;;;;46.17;19.90;;;11.90;99.90;;;;;;5076473;28;20117;-84
2023/10/21 09:04:16;;;;;;;44.63;19.58;;;12.00;99.90;;;;;;5058519;28;20113;-84
2023/10/21 09:06:59;;;;;;;43.50;19.17;;;12.10;99.90;;;;;;5058509;28;20128;-83
2023/10/21 09:09:29;;;;;;;45.33;18.73;;;12.20;99.90;;;;;;5058507;28;20506;-85
2023/10/21 09:12:15;;;;;;;40.65;18.48;;;12.20;99.90;;;;;;5076381;28;20506;-85
2023/10/21 09:14:55;;;;;;;43.65;19.02;;;12.40;99.90;;;;;;5076356;28;20051;-84
2023/10/21 09:17:34;;;;;;;45.47;17.92;;;12.50;99.90;;;;;;5058419;28;20052;-85
2023/10/21 09:20:00;;;;;;;41.75;17.85;;;12.50;99.90;;;;;;5076432;28;20095;-82
2023/10/21 09:22:27;;;;;;;44.28;22.83;;;12.50;99.90;;;;;;5076304;28;20514;-82
2023/10/21 09:25:10;;;;;;;44.95;19.90;;;12.70;99.90;;;;;;5076204;28;20078;-83
2023/10/21 09:27:38;;;;;;;43.17;22.13;;;12.70;99.90;;;;;;5076071;28;20055;-82
2023/10/21 09:30:04;;;;;;;46.05;20.25;;;12.70;99.90;;;;;;5075820;28;20491;-83
2023/10/21 09:32:30;;;;;;;38.65;18.45;;;12.90;99.90;;;;;;5058476;28;20071;-87
2023/10/21 09:35:17;;;;;;;37.78;18.02;;;12.90;99.90;;;;;;5057924;28;20076;-88
2023/10/21 09:37:43;;;;;;;38.17;18.83;;;13.00;99.90;;;;;;5058128;28;20061;-88
2023/10/21 09:40:10;;;;;;;32.95;16.30;;;13.00;99.90;;;;;;5076079;28;20518;-85
2023/10/21 09:42:42;;;;;;;32.40;16.85;;;13.10;99.90;;;;;;5057954;28;20040;-83
2023/10/21 09:45:11;;;;;;;32.50;16.23;;;13.10;99.90;;;;;;5058154;28;20049;-84
2023/10/21 09:47:41;;;;;;;32.78;17.35;;;13.30;99.90;;;;;;5075265;28;20043;-86
2023/10/21 09:50:11;;;;;;;35.70;17.20;;;13.20;99.90;;;;;;5058155;28;20044;-85
2023/10/21 09:52:57;;;;;;;32.38;14.80;;;13.40;99.90;;;;;;5076021;28;20044;-85
2023/10/21 09:55:28;;;;;;;29.60;15.45;;;13.40;99.90;;;;;;5044741;28;20049;-85
2023/10/21 09:57:55;;;;;;;28.67;15.50;;;13.20;99.90;;;;;;5057732;28;20049;-85
2023/10/21 10:00:22;;;;;;;30.25;14.32;;;13.30;99.90;;;;;;5057923;28;20156;-84
2023/10/21 10:02:48;;;;;;;32.13;14.43;;;13.40;99.90;;;;;;5057896;28;20301;-85
2023/10/21 10:05:18;;;;;;;21.33;12.63;;;13.30;99.90;;;;;;5075906;28;20202;-85
2023/10/21 10:07:48;;;;;;;;;;;13.40;99.90;;;;;;5057759;28;20049;-86
2023/10/21 10:10:15;;;;;;;21.70;11.77;;;13.50;99.90;;;;;;5057799;28;20408;-83
2023/10/21 10:12:50;;;;;;;25.70;12.15;;;13.30;99.90;;;;;;5057665;28;20124;-86
2023/10/21 10:15:35;;;;;;;22.52;11.38;;;13.50;99.90;;;;;;5075752;28;20151;-84
2023/10/21 10:18:03;;;;;;;21.30;12.85;;;13.30;99.90;;;;;;5075646;28;20044;-84
2023/10/21 10:20:28;;;;;;;22.05;11.93;;;13.50;99.90;;;;;;5075280;28;20056;-84
2023/10/21 10:23:07;;;;;;;21.13;10.88;;;13.40;99.90;;;;;;5075050;28;20048;-85
2023/10/21 10:25:40;;;;;;;23.35;10.50;;;13.40;99.90;;;;;;5057248;28;20498;-84
2023/10/21 10:28:10;;;;;;;20.27;10.68;;;13.40;99.90;;;;;;5057184;28;20056;-84
2023/10/21 10:30:45;;;;;;;18.15;10.38;;;13.40;99.90;;;;;;5057306;28;20043;-86
2023/10/21 10:33:24;;;;;;;20.85;9.90;;;13.50;99.90;;;;;;5075129;28;20048;-85
2023/10/21 10:35:51;;;;;;;20.75;9.77;;;13.30;99.90;;;;;;5057033;28;20075;-86
2023/10/21 10:38:17;;;;;;;18.52;9.82;;;13.40;99.90;;;;;;5074700;28;20061;-84
2023/10/21 10:40:44;;;;;;;16.20;9.50;;;13.40;99.90;;;;;;5074913;28;20045;-85
2023/10/21 10:43:18;;;;;;;14.90;8.98;;;13.30;99.90;;;;;;5056912;28;20068;-84
2023/10/21 10:45:43;;;;;;;17.38;9.23;;;13.40;99.90;;;;;;5075067;28;20125;-83
2023/10/21 10:48:10;;;;;;;15.57;8.40;;;13.40;99.90;;;;;;5056744;28;20068;-82
2023/10/21 10:50:38;;;;;;;14.73;8.68;;;13.40;99.90;;;;;;5056839;28;20044;-83
2023/10/21 10:53:20;;;;;;;12.57;6.22;;;13.50;99.90;;;;;;5075064;28;20049;-82
2023/10/21 10:55:55;;;;;;;9.43;5.28;;;13.50;99.90;;;;;;5057047;28;20101;-83
2023/10/21 10:58:22;;;;;;;8.60;4.88;;;13.40;99.90;;;;;;5074462;28;20048;-82
2023/10/21 11:00:48;;;;;;;8.50;4.22;;;13.40;99.90;;;;;;5074640;28;20117;-80
2023/10/21 11:03:24;;;;;;;8.70;4.45;;;13.40;99.90;;;;;;5074481;28;20073;-82
2023/10/21 11:05:51;;;;;;;6.13;4.18;;;13.20;99.90;;;;;;5056615;28;20052;-83
2023/10/21 11:08:18;;;;;;;9.00;4.40;;;13.30;99.90;;;;;;5056486;28;20391;-83
2023/10/21 11:10:43;;;;;;;7.25;4.40;;;13.20;99.90;;;;;;5056336;28;20054;-84
2023/10/21 11:13:09;;;;;;;7.53;4.03;;;13.30;99.90;;;;;;5074512;28;20123;-83
2023/10/21 11:15:44;;;;;;;6.88;4.15;;;13.30;99.90;;;;;;5056441;28;20130;-86
2023/10/21 11:18:15;;;;;;;9.13;3.97;;;13.30;99.90;;;;;;5056492;28;20060;-83
2023/10/21 11:20:52;;;;;;;7.30;4.50;;;13.30;99.90;;;;;;5073961;28;20426;-85
2023/10/21 11:23:19;;;;;;;7.55;4.43;;;13.20;99.90;;;;;;5073847;28;20051;-85
2023/10/21 11:25:50;;;;;;;7.80;4.10;;;13.30;99.90;;;;;;5074140;28;20058;-85
2023/10/21 11:28:17;;;;;;;7.47;4.13;;;13.40;99.90;;;;;;5073893;28;20479;-83
2023/10/21 11:30:44;;;;;;;6.72;3.88;;;13.60;99.90;;;;;;5056009;28;20048;-85
2023/10/21 11:33:10;;;;;;;7.30;3.90;;;13.60;99.90;;;;;;5055881;28;20054;-84
2023/10/21 11:35:44;;;;;;;9.55;3.97;;;13.50;99.90;;;;;;5074101;28;20044;-82
2023/10/21 11:38:13;;;;;;;7.28;3.47;;;13.50;99.90;;;;;;5073655;28;20056;-82
2023/10/21 11:40:40;;;;;;;5.28;3.13;;;13.60;99.90;;;;;;5055819;28;20056;-83
2023/10/21 11:43:12;;;;;;;5.07;3.13;;;13.30;99.90;;;;;;5073924;28;20044;-83
2023/10/21 11:45:41;;;;;;;6.60;3.30;;;13.30;99.90;;;;;;5073797;28;20040;-84
2023/10/21 11:48:10;;;;;;;5.90;2.97;;;13.20;99.90;;;;;;5055932;28;20051;-84
2023/10/21 11:50:44;;;;;;;5.78;3.20;;;13.10;99.90;;;;;;5073866;28;20046;-85
2023/10/21 11:53:12;;;;;;;6.57;3.45;;;13.10;99.90;;;;;;5073734;28;20486;-84
2023/10/21 12:17:52;;;;;;;6.25;2.88;;;13.30;99.90;;;;;;5073644;28;20052;-84
2023/10/21 12:41:33;;;;;;;2.88;1.77;;;13.20;99.90;;;;;;5073382;28;20051;-84
2023/10/21 12:43:49;;;;;;;4.13;2.00;;;13.20;99.90;;;;;;5071563;28;20060;-85
2023/10/21 12:46:25;;;;;;;4.43;1.90;;;13.20;99.90;;;;;;5055156;28;20044;-85
2023/10/21 12:48:51;;;;;;;4.00;1.92;;;13.20;99.90;;;;;;5055293;28;20060;-82
2023/10/21 12:51:19;;;;;;;4.47;2.10;;;13.30;99.90;;;;;;5072913;28;20057;-84
2023/10/21 12:53:45;;;;;;;3.72;1.88;;;13.30;99.90;;;;;;5073053;28;20045;-84
2023/10/21 12:56:10;;;;;;;5.05;1.98;;;13.30;99.90;;;;;;5055013;28;20147;-86
2023/10/21 12:58:36;;;;;;;4.22;1.90;;;13.40;99.90;;;;;;5073173;28;20041;-84
2023/10/21 13:01:04;;;;;;;3.97;1.90;;;13.50;99.90;;;;;;5073186;28;20037;-85
2023/10/21 13:03:31;;;;;;;4.70;1.55;;;13.50;99.90;;;;;;5073020;28;20488;-84
2023/10/21 13:05:57;;;;;;;5.07;2.40;;;13.60;99.90;;;;;;5073103;28;20041;-87
2023/10/21 13:08:23;;;;;;;3.53;1.80;;;13.60;99.90;;;;;;5073121;28;20054;-85
2023/10/21 13:10:50;;;;;;;5.35;1.80;;;13.70;99.90;;;;;;5073042;28;20048;-84
2023/10/21 13:13:18;;;;;;;3.72;1.65;;;13.70;99.90;;;;;;5054902;28;20051;-85
2023/10/21 13:15:44;;;;;;;6.13;2.10;;;13.80;99.90;;;;;;5055125;28;20049;-84